Flight Track Log - Related Links

Times and Time Zones

All times are in EDT time to prevent confusion due to time zone crossing. See the TAM3294 flight status page for this flight to view local times or setup timezone preferences in your user account.

Time Position Orientation Groundspeed Altitude Reporting Facility
EDT Latitude Longitude Course Direction KTS MPH feet Rate Location/Type
Tue 12:49:32 PM -27.9916 -49.6651 33° Northeast  Level Estimated
Tue 12:50:32 PM -27.9129 -49.6072 33° Northeast  Level Estimated
Tue 12:51:32 PM -27.8341 -49.5495 33° Northeast  Level Estimated
Tue 12:52:32 PM -27.7552 -49.4918 33° Northeast  Level Estimated
Tue 12:53:32 PM -27.6764 -49.4342 33° Northeast  Level Estimated
Tue 12:54:32 PM -27.5975 -49.3767 33° Northeast  Level Estimated
Tue 12:55:32 PM -27.5186 -49.3193 33° Northeast  Level Estimated
Tue 12:56:32 PM -27.4397 -49.2620 33° Northeast  Level Estimated
Tue 12:57:32 PM -27.3608 -49.2047 33° Northeast  Level Estimated
Tue 12:58:32 PM -27.2818 -49.1475 33° Northeast  Level Estimated
Tue 12:59:32 PM -27.2028 -49.0905 33° Northeast  Level Estimated
Tue 01:00:32 PM -27.1238 -49.0335 33° Northeast  Level Estimated
Tue 01:01:32 PM -27.0448 -48.9765 33° Northeast  Level Estimated
Tue 01:02:32 PM -26.9657 -48.9197 33° Northeast  Level Estimated
Tue 01:03:32 PM -26.8867 -48.8629 33° Northeast  Level Estimated
Tue 01:04:32 PM -26.8076 -48.8062 33° Northeast  Level Estimated
Tue 01:05:32 PM -26.7284 -48.7496 33° Northeast  Level Estimated
Tue 01:06:32 PM -26.6493 -48.6931 33° Northeast  Level Estimated
Tue 01:07:32 PM -26.5701 -48.6366 33° Northeast  Level Estimated
Tue 01:08:32 PM -26.4909 -48.5802 32° Northeast  Level Estimated
Tue 01:09:32 PM -26.4117 -48.5239 32° Northeast  Level Estimated
Tue 01:10:32 PM -26.3325 -48.4677 32° Northeast  Level Estimated
Tue 01:11:32 PM -26.2532 -48.4116 32° Northeast  Level Estimated
Tue 01:12:32 PM -26.1740 -48.3555 32° Northeast  Level Estimated
Tue 01:13:32 PM -26.0947 -48.2995 32° Northeast  Level Estimated
Tue 01:14:32 PM -26.0153 -48.2436 32° Northeast  Level Estimated
Tue 01:15:32 PM -25.9360 -48.1878 32° Northeast  Level Estimated
Tue 01:16:32 PM -25.8566 -48.1320 32° Northeast  Level Estimated
Tue 01:17:32 PM -25.7773 -48.0763 32° Northeast  Level Estimated
Tue 01:18:32 PM -25.6978 -48.0207 32° Northeast  Level Estimated
Tue 01:19:32 PM -25.6184 -47.9652 32° Northeast  Level Estimated
Tue 01:20:32 PM -25.5390 -47.9097 32° Northeast  Level Estimated
Tue 01:21:32 PM -25.4595 -47.8543 32° Northeast  Level Estimated
Tue 01:22:32 PM -25.3800 -47.7990 32° Northeast  Level Estimated
Tue 01:23:32 PM -25.3005 -47.7438 32° Northeast  Level Estimated
Tue 01:24:32 PM -25.2210 -47.6886 32° Northeast  Level Estimated
Tue 01:25:32 PM -25.1414 -47.6335 32° Northeast  Level Estimated
Tue 01:26:32 PM -25.0618 -47.5785 32° Northeast  Level Estimated
Tue 01:27:32 PM -24.9823 -47.5235 32° Northeast  Level Estimated
Tue 01:28:32 PM -24.9026 -47.4686 32° Northeast  Level Estimated
Tue 01:29:32 PM -24.8230 -47.4138 32° Northeast  Level Estimated
Tue 01:30:32 PM -24.7434 -47.3591 32° Northeast  Level Estimated
Tue 01:31:32 PM -24.6637 -47.3044 32° Northeast  Level Estimated
Tue 01:32:32 PM -24.5840 -47.2498 32° Northeast  Level Estimated
Tue 01:33:32 PM -24.5043 -47.1952 32° Northeast  Level Estimated
Tue 01:34:32 PM -24.4246 -47.1408 32° Northeast  Level Estimated
Tue 01:35:32 PM -24.3448 -47.0864 32° Northeast  Level Estimated
Tue 01:36:32 PM -24.2650 -47.0320 32° Northeast  Level Estimated
Tue 01:37:32 PM -24.1852 -46.9778 32° Northeast  Level Estimated
Tue 01:38:32 PM -24.1054 -46.9236 32° Northeast  Level Estimated
Tue 01:39:32 PM -24.0256 -46.8695 32° Northeast  Level Estimated
Tue 01:40:32 PM -23.9458 -46.8154 32° Northeast  Level Estimated
Tue 01:41:32 PM -23.8659 -46.7614 32° Northeast  Level Estimated
Tue 01:42:32 PM -23.7860 -46.7075 32° Northeast  Level Estimated
Tue 01:43:32 PM -23.7061 -46.6536 32° Northeast  Level Estimated
Tue 01:44:32 PM -23.6262 -46.5998 32° Northeast  Level Estimated
Tue 01:45:32 PM -23.5463 -46.5461 32° Northeast  Level Estimated
Tue 01:46:32 PM -23.4663 -46.4925 32° Northeast  Level Estimated
Tue 01:47:32 PM -23.3863 -46.4389 212° Southwest  Level Estimated
Tue 01:48:32 PM -23.4663 -46.4925 32° Northeast  Level Estimated
Tue 01:49:32 PM -23.3863 -46.4389 212° Southwest  Level Estimated
Tue 01:50:32 PM -23.4663 -46.4925 32° Northeast  Level Estimated
Tue 01:51:32 PM -23.3863 -46.4389 212° Southwest  Level Estimated
Tue 01:52:32 PM -23.4663 -46.4925 32° Northeast  Level Estimated
Tue 01:53:32 PM -23.3863 -46.4389 212° Southwest  Level Estimated
Tue 01:54:32 PM -23.4663 -46.4925 32° Northeast  Level Estimated
Tue 01:55:32 PM -23.3863 -46.4389 212° Southwest  Level Estimated
Tue 01:56:32 PM -23.4663 -46.4925 32° Northeast  Level Estimated
Tue 01:57:32 PM -23.3863 -46.4389 212° Southwest  Level Estimated
Tue 01:58:32 PM -23.4663 -46.4925 212° Southwest  Level Estimated

Login

Don't have an account? Register now (free) for customized features, flight alerts, and more!